Pelham, NH (03076)

11:49 PM EDT on March 26, 2015 (GMT -0400)
Independence Dr | | Change Station
CLOSE
Current Station
Personal Weather Station
Location: Pelham, NH
Elevation: 180 ft
Nearby Weather Stations

Elev 180 ft 42.74 °N, 71.34 °W | Updated 15 seconds ago

Rain
Rain
41.1 °F
Feels Like 41 °F
N
0.0
Wind Variable Wind from WSW
Gusts 0.0 mph

Today
High -- | Low -- °F
--% Chance of Precip.
Yesterday
High -- | Low -- °F
Precip. -- in
6:38 AM 7:04 PM
Waxing Crescent, 48% visible
Pressure 29.68 in
Visibility 3.0 miles
Clouds Mostly Cloudy 200 ft
Mostly Cloudy 1400 ft
Overcast 2100 ft
Windchill 41 °F
Dew Point 40 °F
Humidity 97%
Rainfall 0.33 in
Snow Depth Not available.
UV 0.0 out of 12
Pollen 3.50 out of 12
Air Quality Not available.
Flu Activity Not available.
SPECI KASH 270344Z AUTO 00000KT 3SM RA BR BKN002 BKN014 OVC021 06/05 A2968 RMK AO2 BKN V SCT P0000 $

More Conditions Fewer Conditions

Pressure 29.68 in
Visibility 3.0 miles
Clouds Mostly Cloudy 200 ft
Mostly Cloudy 1400 ft
Overcast 2100 ft
Windchill 41 °F
Dew Point 40 °F
Humidity 97%
Rainfall 0.33 in
Snow Depth Not available.
UV 0.0 out of 12
Pollen 3.50 out of 12
Air Quality Not available.
Flu Activity Not available.
SPECI KASH 270344Z AUTO 00000KT 3SM RA BR BKN002 BKN014 OVC021 06/05 A2968 RMK AO2 BKN V SCT P0000 $

More Conditions Fewer Conditions

10-Day Weather Forecast

Almanac

Astronomy

Mar. 26, 2015 Rise Set
Actual Time
Civil Twilight
Nautical Twilight
Astronomical Twilight
Moon
Length of Visible Light
Length of Day
Tomorrow will be .
, % of the Moon is Illuminated

Today's Extremes

State Highs State Lows

Community

WunderPhotos

Upload Photos

1,808,703 photos uploaded!

WunderBlogs® & News

Nearby

Air Quality

  Air Quality AQ Index Pollutant
Not available.

Snow Depth

Station Depth Elevation

Earthquake Activity

City Distance Mag. Time & Date
Minimum magnitude displayed is 2.5.

Coastal Water Temperatures

Place Temperature

Stations

Nearby Weather Stations

Station Location Temp. Windchill Dew Point Humidity Wind Precip. Elev Updated Type